Time;durP1;ratioP1;P1;durP2;ratioP2;P2;SDS_P1;SDS_P2;PMS_P1;PMS_P2;Temp;Humidity;BMP_temperature;BMP_pressure;BME280_temperature;BME280_humidity;BME280_pressure;Samples;Min_cycle;Max_cycle;Signal;HPM_P1;HPM_P2
2021/04/16 00:00:45;;;;;;;3.05;2.00;;;2.50;97.90;;;;;;5052788;28;20033;-72
2021/04/16 00:03:12;;;;;;;3.95;1.83;;;2.60;98.00;;;;;;5047484;28;20057;-73
2021/04/16 00:05:40;;;;;;;3.67;1.95;;;2.60;98.10;;;;;;5026554;28;20059;-72
2021/04/16 00:08:21;;;;;;;5.53;2.30;;;2.50;98.00;;;;;;5045301;28;20055;-72
2021/04/16 00:10:51;;;;;;;1.77;1.30;;;2.10;98.00;;;;;;5045933;28;20072;-71
2021/04/16 00:13:19;;;;;;;4.50;1.77;;;2.50;98.20;;;;;;5046281;28;20052;-72
2021/04/16 00:15:46;;;;;;;5.43;1.67;;;2.50;98.10;;;;;;5048310;28;20037;-71
2021/04/16 00:18:15;;;;;;;6.13;2.35;;;2.50;98.10;;;;;;5056270;28;20047;-72
2021/04/16 00:20:42;;;;;;;3.70;1.80;;;2.50;98.10;;;;;;5046116;28;20711;-72
2021/04/16 00:23:08;;;;;;;2.60;1.90;;;2.90;98.20;;;;;;5044688;28;20068;-71
2021/04/16 00:25:34;;;;;;;3.22;1.88;;;2.30;98.10;;;;;;5043072;28;20134;-71
2021/04/16 00:28:01;;;;;;;2.72;1.67;;;2.30;98.20;;;;;;5040079;28;20045;-72
2021/04/16 00:31:02;;;;;;;3.60;1.75;;;2.30;98.30;;;;;;5059956;28;20048;-72
2021/04/16 00:33:29;;;;;;;3.35;2.00;;;2.20;98.40;;;;;;5040401;28;20644;-71
2021/04/16 00:35:55;;;;;;;2.80;1.60;;;2.30;98.50;;;;;;5053349;28;20166;-71
2021/04/16 00:38:22;;;;;;;3.42;2.03;;;2.20;98.60;;;;;;5054599;28;20071;-71
2021/04/16 00:40:55;;;;;;;3.10;2.08;;;2.20;98.70;;;;;;5051996;28;20063;-72
2021/04/16 00:43:23;;;;;;;4.95;2.15;;;2.30;98.90;;;;;;5054731;28;20541;-72
2021/04/16 00:46:13;;;;;;;4.18;2.17;;;2.20;99.00;;;;;;5046660;28;20045;-72
2021/04/16 00:49:02;;;;;;;4.05;2.17;;;2.20;99.00;;;;;;5042537;28;20399;-72
2021/04/16 00:51:40;;;;;;;4.60;2.17;;;2.20;99.00;;;;;;5046093;28;20048;-72
2021/04/16 00:54:11;;;;;;;5.03;2.08;;;2.20;98.90;;;;;;5041440;28;20042;-73
2021/04/16 00:56:37;;;;;;;3.25;1.80;;;2.20;99.00;;;;;;5045762;28;20045;-71
2021/04/16 00:59:03;;;;;;;3.88;1.85;;;2.10;98.90;;;;;;5045772;28;20041;-73
2021/04/16 01:01:30;;;;;;;4.95;2.05;;;2.10;99.10;;;;;;5041761;28;20041;-72
2021/04/16 01:03:56;;;;;;;5.28;1.70;;;2.00;99.10;;;;;;5044498;28;20040;-71
2021/04/16 01:06:23;;;;;;;2.65;1.83;;;2.10;99.10;;;;;;5042307;28;20040;-71
2021/04/16 01:08:50;;;;;;;4.90;2.05;;;2.10;99.30;;;;;;5047933;28;20433;-71
2021/04/16 01:11:16;;;;;;;3.40;2.10;;;2.10;99.30;;;;;;5058486;28;20051;-71
2021/04/16 01:13:44;;;;;;;4.75;2.30;;;2.10;99.30;;;;;;5048831;28;20041;-72
2021/04/16 01:16:14;;;;;;;4.40;2.22;;;2.00;99.30;;;;;;5045754;28;20104;-73
2021/04/16 01:18:45;;;;;;;9.05;2.25;;;2.00;99.30;;;;;;5049961;28;20045;-72
2021/04/16 01:21:15;;;;;;;5.15;2.10;;;2.00;99.40;;;;;;5047217;28;20098;-71
2021/04/16 01:24:19;;;;;;;4.93;2.10;;;2.00;99.50;;;;;;5046883;28;20048;-71
2021/04/16 01:26:45;;;;;;;5.00;2.10;;;2.00;99.60;;;;;;5046288;28;20554;-72
2021/04/16 01:29:11;;;;;;;5.35;2.40;;;2.00;99.50;;;;;;5048207;28;20037;-71
2021/04/16 01:31:47;;;;;;;4.85;2.05;;;2.00;99.60;;;;;;5033306;28;20049;-71
2021/04/16 01:34:39;;;;;;;4.40;2.22;;;2.00;99.60;;;;;;5051447;28;20045;-72
2021/04/16 01:37:05;;;;;;;6.50;2.22;;;2.00;99.80;;;;;;5046615;28;20076;-70
2021/04/16 01:39:32;;;;;;;5.85;2.47;;;2.00;99.80;;;;;;5047945;28;20041;-72
2021/04/16 01:41:59;;;;;;;4.15;2.10;;;2.00;99.90;;;;;;5050881;28;20087;-71
2021/04/16 01:44:30;;;;;;;4.93;2.00;;;2.00;99.90;;;;;;5046034;28;20124;-71
2021/04/16 01:47:06;;;;;;;4.38;2.33;;;2.00;99.90;;;;;;5048565;28;20051;-70
2021/04/16 01:49:40;;;;;;;4.53;2.40;;;2.10;99.90;;;;;;5048883;28;20041;-72
2021/04/16 01:52:30;;;;;;;6.97;1.85;;;2.00;99.80;;;;;;5045976;28;20438;-71
2021/04/16 01:54:56;;;;;;;6.85;2.13;;;2.00;99.60;;;;;;5029226;28;20044;-72
2021/04/16 01:57:26;;;;;;;4.30;2.08;;;2.00;99.80;;;;;;5047403;28;20044;-71
2021/04/16 01:59:54;;;;;;;4.00;2.28;;;1.90;99.80;;;;;;5052900;28;20071;-72
2021/04/16 02:02:27;;;;;;;3.72;2.30;;;1.90;99.90;;;;;;5033954;28;20056;-69
2021/04/16 02:04:53;;;;;;;6.80;2.72;;;1.80;99.90;;;;;;5049984;28;20048;-71
2021/04/16 02:07:19;;;;;;;9.48;2.67;;;1.70;99.90;;;;;;5046163;28;20052;-71
2021/04/16 02:09:45;;;;;;;4.47;2.83;;;1.60;99.90;;;;;;5046576;28;20482;-72
2021/04/16 02:12:13;;;;;;;6.65;2.72;;;1.50;99.90;;;;;;5030618;28;20503;-71
2021/04/16 02:14:39;;;;;;;5.57;2.47;;;1.30;99.90;;;;;;5049649;28;20049;-72
2021/04/16 02:17:15;;;;;;;3.45;1.80;;;1.30;99.90;;;;;;5051279;28;20053;-72
2021/04/16 02:19:42;;;;;;;5.30;2.47;;;1.20;99.90;;;;;;5054815;28;20059;-71
2021/04/16 02:22:17;;;;;;;4.75;2.65;;;1.30;99.90;;;;;;5049237;28;20136;-72
2021/04/16 02:24:43;;;;;;;5.72;2.78;;;1.30;99.90;;;;;;5050604;28;20048;-71
2021/04/16 02:27:10;;;;;;;5.93;2.78;;;1.40;99.90;;;;;;5051584;28;20044;-71
2021/04/16 02:29:36;;;;;;;6.30;2.47;;;1.20;99.90;;;;;;5052006;28;20039;-70
2021/04/16 02:32:04;;;;;;;13.07;3.58;;;1.30;99.90;;;;;;5054322;28;20043;-72
2021/04/16 02:34:30;;;;;;;5.18;2.47;;;1.20;99.90;;;;;;5053878;28;20515;-72
2021/04/16 02:36:59;;;;;;;5.43;2.88;;;1.20;99.90;;;;;;5053129;28;20053;-72
2021/04/16 02:39:26;;;;;;;6.90;3.10;;;1.30;99.90;;;;;;5049111;28;20048;-72
2021/04/16 02:41:52;;;;;;;8.07;2.95;;;1.30;99.90;;;;;;5053773;28;20041;-71
2021/04/16 02:44:19;;;;;;;5.03;2.97;;;1.40;99.90;;;;;;5050201;28;20047;-71
2021/04/16 02:46:45;;;;;;;10.85;3.22;;;1.30;99.90;;;;;;5050775;28;20911;-72
2021/04/16 02:49:12;;;;;;;5.40;2.80;;;1.20;99.90;;;;;;5055139;28;20053;-71
2021/04/16 02:51:39;;;;;;;5.75;2.42;;;1.20;99.90;;;;;;5047893;28;20128;-71
2021/04/16 02:54:06;;;;;;;4.13;2.40;;;1.20;99.90;;;;;;5049189;28;20069;-70
2021/04/16 02:56:32;;;;;;;7.03;3.15;;;1.30;99.90;;;;;;5050206;28;20144;-72
2021/04/16 02:58:58;;;;;;;7.95;3.20;;;1.30;99.90;;;;;;5049035;28;20037;-72
2021/04/16 03:01:25;;;;;;;6.25;2.60;;;1.30;99.90;;;;;;5047882;28;20123;-70
2021/04/16 03:03:51;;;;;;;7.60;3.20;;;1.30;99.90;;;;;;5032910;28;20443;-72
2021/04/16 03:06:20;;;;;;;5.65;3.13;;;1.30;99.90;;;;;;5052007;28;20047;-71
2021/04/16 03:08:57;;;;;;;7.47;3.35;;;1.30;99.90;;;;;;5050490;28;20053;-70
2021/04/16 03:11:25;;;;;;;5.00;2.38;;;1.40;99.90;;;;;;5048633;28;20561;-70
2021/04/16 03:13:51;;;;;;;8.05;2.60;;;1.40;99.90;;;;;;5046851;28;20044;-70
2021/04/16 03:16:18;;;;;;;9.38;3.20;;;1.40;99.90;;;;;;5048021;28;20068;-72
2021/04/16 03:18:45;;;;;;;6.97;2.65;;;1.40;99.90;;;;;;5049762;28;20073;-71
2021/04/16 03:21:11;;;;;;;6.35;3.00;;;1.40;99.90;;;;;;5053946;28;20060;-70
2021/04/16 03:23:36;;;;;;;4.93;2.75;;;1.30;99.90;;;;;;5048901;28;20037;-71
2021/04/16 03:26:03;;;;;;;4.93;2.92;;;1.30;99.90;;;;;;5054073;28;20037;-72
2021/04/16 03:28:29;;;;;;;5.45;2.72;;;1.30;99.90;;;;;;5054260;28;20094;-70
2021/04/16 03:30:55;;;;;;;7.32;2.75;;;1.20;99.90;;;;;;5054511;28;20045;-72
2021/04/16 03:33:21;;;;;;;7.82;2.22;;;1.20;99.90;;;;;;5055608;28;20048;-72
2021/04/16 03:35:46;;;;;;;7.68;2.78;;;1.30;99.90;;;;;;5054439;28;20049;-70
2021/04/16 03:38:15;;;;;;;6.18;2.67;;;1.30;99.90;;;;;;5052915;28;20052;-72
2021/04/16 03:40:41;;;;;;;7.45;2.35;;;1.20;99.90;;;;;;5052464;28;20075;-71
2021/04/16 03:43:07;;;;;;;6.70;2.63;;;1.20;99.90;;;;;;5054659;28;20108;-71
2021/04/16 03:45:33;;;;;;;8.25;2.80;;;1.20;99.90;;;;;;5055811;28;20049;-71
2021/04/16 03:47:59;;;;;;;9.10;2.60;;;1.20;99.90;;;;;;5050804;28;20067;-71
2021/04/16 03:50:30;;;;;;;6.72;2.67;;;1.50;99.90;;;;;;5053933;28;20053;-72
2021/04/16 03:52:57;;;;;;;5.95;2.50;;;1.30;99.90;;;;;;5052904;28;20151;-72
2021/04/16 03:55:27;;;;;;;5.82;2.42;;;1.30;99.90;;;;;;5053727;28;20037;-71
2021/04/16 03:57:53;;;;;;;5.93;2.88;;;1.30;99.90;;;;;;5053482;28;20033;-72
2021/04/16 04:00:26;;;;;;;6.65;2.97;;;1.30;99.90;;;;;;5052167;28;20554;-71
2021/04/16 04:02:52;;;;;;;5.05;2.38;;;1.30;99.90;;;;;;5053867;28;20095;-71
2021/04/16 04:05:19;;;;;;;7.10;2.33;;;1.30;99.90;;;;;;5052641;28;20072;-71
2021/04/16 04:07:45;;;;;;;3.97;2.05;;;1.30;99.90;;;;;;5055228;28;20044;-71
2021/04/16 04:10:12;;;;;;;5.25;2.58;;;1.30;99.90;;;;;;5052033;28;20052;-72
2021/04/16 04:12:38;;;;;;;3.95;2.10;;;1.30;99.90;;;;;;5053744;28;20043;-71
2021/04/16 04:15:06;;;;;;;5.05;2.60;;;1.60;99.90;;;;;;5050825;28;20629;-72
2021/04/16 04:17:34;;;;;;;5.70;2.22;;;1.20;99.90;;;;;;5052328;28;20033;-71
2021/04/16 04:20:00;;;;;;;6.80;2.35;;;1.10;99.90;;;;;;5053652;28;20124;-71
2021/04/16 04:22:26;;;;;;;5.05;2.63;;;1.10;99.90;;;;;;5052248;28;20580;-71
2021/04/16 04:24:52;;;;;;;8.35;3.60;;;1.10;99.90;;;;;;5053395;28;20112;-71
2021/04/16 04:27:20;;;;;;;8.25;2.67;;;1.00;99.90;;;;;;5052068;28;20041;-71
2021/04/16 04:29:46;;;;;;;5.20;2.50;;;1.00;99.90;;;;;;5047780;28;20155;-72
2021/04/16 04:32:13;;;;;;;5.85;2.65;;;1.00;99.90;;;;;;5052866;28;20047;-73
2021/04/16 04:34:39;;;;;;;8.52;2.63;;;0.90;99.90;;;;;;5052093;28;20049;-71
2021/04/16 04:37:07;;;;;;;11.07;3.60;;;2.00;99.90;;;;;;5053560;28;20076;-71
2021/04/16 04:39:43;;;;;;;6.30;2.28;;;1.00;99.90;;;;;;5052560;28;20037;-71
2021/04/16 04:42:11;;;;;;;11.00;3.45;;;1.10;99.90;;;;;;5047262;28;20049;-72
2021/04/16 04:44:37;;;;;;;9.88;2.40;;;1.10;99.90;;;;;;5053523;28;20041;-72
2021/04/16 04:47:03;;;;;;;8.90;3.20;;;1.10;99.90;;;;;;5046540;28;20492;-72
2021/04/16 04:49:29;;;;;;;7.50;3.00;;;1.10;99.90;;;;;;5049767;28;20056;-71
2021/04/16 04:52:11;;;;;;;6.80;2.63;;;1.00;99.90;;;;;;5055924;28;20040;-72
2021/04/16 04:54:38;;;;;;;6.82;3.45;;;1.10;99.90;;;;;;5032787;28;20516;-72
2021/04/16 04:57:04;;;;;;;10.55;2.90;;;1.40;99.90;;;;;;5048486;28;20064;-72
2021/04/16 04:59:29;;;;;;;7.20;3.13;;;1.20;99.90;;;;;;5048651;28;20098;-71
2021/04/16 05:01:55;;;;;;;7.22;2.88;;;1.20;99.90;;;;;;5049914;28;20581;-72
2021/04/16 05:04:21;;;;;;;10.23;3.03;;;1.40;99.90;;;;;;5049635;28;20045;-72
2021/04/16 05:06:46;;;;;;;6.40;2.17;;;1.70;99.90;;;;;;5053027;28;20423;-70
2021/04/16 05:09:12;;;;;;;4.60;2.25;;;1.80;99.90;;;;;;5048907;28;20113;-72
2021/04/16 05:11:38;;;;;;;10.40;2.47;;;2.20;99.90;;;;;;5047441;28;20076;-72
2021/04/16 05:14:04;;;;;;;4.80;1.50;;;2.60;99.90;;;;;;5047421;28;20044;-72
2021/04/16 05:16:29;;;;;;;6.45;2.20;;;3.30;99.90;;;;;;5049123;28;20041;-72
2021/04/16 05:18:57;;;;;;;7.25;1.50;;;4.50;98.90;;;;;;5049505;28;20040;-73
2021/04/16 05:21:22;;;;;;;6.70;2.38;;;5.70;96.80;;;;;;5050240;28;20037;-73
2021/04/16 05:23:48;;;;;;;5.05;1.80;;;6.90;94.90;;;;;;5047906;28;20049;-73
2021/04/16 05:26:14;;;;;;;5.78;1.73;;;7.90;93.10;;;;;;5045595;28;20040;-74
2021/04/16 05:28:39;;;;;;;6.05;1.60;;;8.80;90.90;;;;;;5049335;28;20123;-74
2021/04/16 05:31:05;;;;;;;7.95;1.45;;;9.80;88.20;;;;;;5046503;28;20032;-74
2021/04/16 05:33:31;;;;;;;3.22;1.45;;;10.60;83.70;;;;;;5048588;28;20045;-75
2021/04/16 05:35:56;;;;;;;10.20;1.95;;;11.50;79.30;;;;;;5047769;28;20037;-75
2021/04/16 05:38:22;;;;;;;3.55;1.80;;;12.20;73.10;;;;;;5045218;28;20079;-75
2021/04/16 05:40:48;;;;;;;6.95;2.08;;;13.00;71.20;;;;;;5048264;28;20120;-75
2021/04/16 05:43:13;;;;;;;7.60;2.10;;;13.10;68.80;;;;;;5044108;28;20076;-75
2021/04/16 05:45:39;;;;;;;4.07;1.70;;;12.50;67.70;;;;;;5047676;28;20033;-76
2021/04/16 05:48:05;;;;;;;5.53;1.60;;;12.60;68.20;;;;;;5046983;28;20124;-76
2021/04/16 05:50:31;;;;;;;5.07;2.03;;;13.60;68.00;;;;;;5048677;28;20044;-76
2021/04/16 05:53:02;;;;;;;3.75;1.73;;;14.50;64.20;;;;;;5049511;28;20034;-76
2021/04/16 05:55:28;;;;;;;7.07;1.75;;;15.30;60.90;;;;;;5044608;28;21599;-76
2021/04/16 05:57:53;;;;;;;6.90;2.10;;;16.10;58.10;;;;;;5052986;28;20071;-76
2021/04/16 06:00:19;;;;;;;8.98;2.00;;;16.80;55.90;;;;;;5047253;28;20036;-77
2021/04/16 06:02:48;;;;;;;5.85;1.77;;;17.40;54.40;;;;;;5048264;28;20060;-77
2021/04/16 06:05:18;;;;;;;7.00;2.40;;;18.00;52.40;;;;;;5050053;28;20049;-77
2021/04/16 06:07:44;;;;;;;6.90;1.95;;;17.60;50.70;;;;;;5047482;28;20368;-77
2021/04/16 06:10:12;;;;;;;3.30;1.75;;;17.80;52.40;;;;;;5048293;28;20127;-77
2021/04/16 06:12:38;;;;;;;6.82;1.85;;;18.50;51.10;;;;;;5048171;28;20033;-77
2021/04/16 06:15:10;;;;;;;7.35;2.20;;;19.00;49.90;;;;;;5049488;28;20060;-77
2021/04/16 06:17:36;;;;;;;6.18;2.42;;;19.30;48.30;;;;;;5043829;28;20091;-77
2021/04/16 06:20:04;;;;;;;7.30;2.35;;;18.90;48.80;;;;;;5049314;28;20040;-77
2021/04/16 06:22:30;;;;;;;9.75;2.75;;;18.20;49.40;;;;;;5044073;28;20807;-77
2021/04/16 06:24:56;;;;;;;8.07;1.92;;;18.20;50.90;;;;;;5049972;28;20041;-78
2021/04/16 06:27:25;;;;;;;6.68;2.22;;;18.10;48.60;;;;;;5048046;28;20055;-78
2021/04/16 06:29:51;;;;;;;6.25;1.77;;;17.90;49.80;;;;;;5048442;28;20045;-78
2021/04/16 06:32:19;;;;;;;6.75;1.90;;;17.40;50.90;;;;;;5051003;28;20044;-78
2021/04/16 06:34:45;;;;;;;8.02;1.80;;;17.40;52.20;;;;;;5049853;28;20118;-78
2021/04/16 06:37:11;;;;;;;7.93;2.00;;;17.60;52.40;;;;;;5050714;28;20475;-78
2021/04/16 06:39:38;;;;;;;9.13;2.15;;;18.10;51.70;;;;;;5047755;28;20067;-78
2021/04/16 06:42:22;;;;;;;8.25;2.13;;;18.30;50.90;;;;;;5047007;28;20420;-80
2021/04/16 06:44:58;;;;;;;4.93;1.70;;;18.60;49.80;;;;;;5049885;28;20070;-80
2021/04/16 06:47:26;;;;;;;10.90;1.98;;;18.40;49.70;;;;;;5049939;28;20521;-79
2021/04/16 06:49:57;;;;;;;7.68;2.08;;;18.40;49.40;;;;;;5050281;28;20041;-79
2021/04/16 06:52:31;;;;;;;5.25;1.95;;;18.00;49.60;;;;;;5047813;28;20049;-79
2021/04/16 06:55:21;;;;;;;5.65;2.28;;;17.40;50.90;;;;;;5049192;28;20048;-79
2021/04/16 06:57:55;;;;;;;6.05;1.92;;;16.20;55.00;;;;;;5046858;28;20479;-77
2021/04/16 07:00:36;;;;;;;7.07;1.83;;;15.40;57.40;;;;;;5049141;28;20383;-78
2021/04/16 07:03:14;;;;;;;7.80;2.17;;;14.60;59.20;;;;;;5049658;28;20115;-78
2021/04/16 07:06:10;;;;;;;7.53;1.90;;;13.80;63.40;;;;;;5045508;28;20107;-76
2021/04/16 07:08:50;;;;;;;;;;;13.70;66.80;;;;;;5048587;28;20037;-75
2021/04/16 07:11:21;;;;;;;11.27;2.58;;;13.10;69.60;;;;;;5050013;28;20456;-75
2021/04/16 07:13:47;;;;;;;11.25;1.70;;;13.10;73.50;;;;;;5049403;28;20376;-75
2021/04/16 07:16:16;;;;;;;9.88;2.05;;;12.90;73.70;;;;;;5047518;28;20831;-75
2021/04/16 07:18:43;;;;;;;8.63;1.65;;;12.80;73.10;;;;;;5052998;28;20095;-74
2021/04/16 07:21:13;;;;;;;5.70;1.48;;;12.90;73.40;;;;;;5049125;28;20041;-74
2021/04/16 07:23:47;;;;;;;10.98;1.55;;;13.00;73.50;;;;;;5050520;28;20112;-75
2021/04/16 07:26:37;;;;;;;7.53;1.40;;;12.90;71.90;;;;;;5050352;28;20483;-75
2021/04/16 07:29:03;;;;;;;5.57;1.60;;;12.90;71.70;;;;;;5048837;28;20399;-74
2021/04/16 07:31:47;;;;;;;7.25;1.45;;;12.60;74.60;;;;;;5051341;28;20096;-74
2021/04/16 07:34:28;;;;;;;5.78;1.38;;;12.30;69.10;;;;;;5053532;28;20048;-74
2021/04/16 07:37:13;;;;;;;4.60;1.30;;;11.90;70.10;;;;;;5048500;28;20079;-74
2021/04/16 07:39:49;;;;;;;4.43;1.17;;;11.80;73.60;;;;;;5048427;28;20475;-74
2021/04/16 07:42:19;;;;;;;1.55;0.73;;;11.90;68.70;;;;;;5052846;28;20043;-74
2021/04/16 07:45:15;;;;;;;3.80;1.50;;;12.00;70.80;;;;;;5047303;28;20152;-74
2021/04/16 07:47:41;;;;;;;4.53;1.60;;;12.10;70.80;;;;;;5052341;28;20041;-74
2021/04/16 07:50:27;;;;;;;4.55;1.00;;;11.80;67.40;;;;;;5048017;28;20055;-74
2021/04/16 07:52:54;;;;;;;3.75;1.13;;;11.90;68.10;;;;;;5043063;28;20443;-74
2021/04/16 07:55:25;;;;;;;5.90;1.13;;;11.90;65.60;;;;;;5050737;28;20091;-74
2021/04/16 07:57:51;;;;;;;5.13;1.42;;;11.80;65.70;;;;;;5048081;28;20037;-74
2021/04/16 08:00:23;;;;;;;2.78;0.77;;;11.90;66.00;;;;;;5049700;28;20498;-74
2021/04/16 08:03:01;;;;;;;1.88;0.90;;;12.10;67.20;;;;;;5050104;28;20041;-74
2021/04/16 08:05:32;;;;;;;3.28;1.50;;;12.10;64.70;;;;;;5050574;28;20505;-74
2021/04/16 08:08:07;;;;;;;2.50;0.57;;;12.20;62.00;;;;;;5038568;28;20057;-74
2021/04/16 08:10:33;;;;;;;3.43;0.70;;;11.90;60.60;;;;;;5045198;28;20044;-73
2021/04/16 08:13:31;;;;;;;2.47;0.57;;;11.90;57.40;;;;;;5040449;28;20041;-74
2021/04/16 08:16:18;;;;;;;1.63;0.73;;;11.90;57.20;;;;;;5037717;28;20456;-74
2021/04/16 08:18:47;;;;;;;2.83;0.85;;;11.80;58.20;;;;;;5040303;28;20037;-73
2021/04/16 08:21:20;;;;;;;3.20;0.93;;;12.00;60.20;;;;;;5041542;28;20041;-73
2021/04/16 08:24:05;;;;;;;6.05;0.60;;;12.20;60.80;;;;;;5035513;28;20052;-73
2021/04/16 08:26:38;;;;;;;3.35;0.60;;;12.40;58.30;;;;;;5040661;28;20400;-73
2021/04/16 08:29:26;;;;;;;2.17;0.80;;;12.40;56.60;;;;;;5038069;28;20064;-73
2021/04/16 08:32:04;;;;;;;4.38;0.85;;;12.50;53.70;;;;;;5042507;28;20033;-73
2021/04/16 08:34:42;;;;;;;2.50;0.60;;;12.20;53.10;;;;;;5048099;28;20036;-73
2021/04/16 08:37:21;;;;;;;1.33;0.70;;;12.30;52.90;;;;;;5044640;28;20037;-73
2021/04/16 08:39:48;;;;;;;2.15;0.60;;;12.40;56.60;;;;;;5039566;28;20429;-73
2021/04/16 08:42:28;;;;;;;2.50;0.60;;;12.40;55.10;;;;;;5039236;28;20037;-73
2021/04/16 08:44:55;;;;;;;4.13;1.02;;;11.90;52.40;;;;;;5035468;28;20057;-73
2021/04/16 08:47:31;;;;;;;11.85;0.90;;;12.10;54.30;;;;;;5038538;28;20037;-73
2021/04/16 08:49:58;;;;;;;2.75;0.52;;;12.20;55.10;;;;;;5042807;28;20116;-73
2021/04/16 08:52:30;;;;;;;4.03;0.70;;;12.50;56.80;;;;;;5047519;28;20041;-73
2021/04/16 08:55:09;;;;;;;4.85;0.90;;;12.70;54.50;;;;;;5049274;28;20045;-73
2021/04/16 08:57:44;;;;;;;2.10;0.60;;;12.90;55.10;;;;;;5046430;28;20045;-73
2021/04/16 09:00:23;;;;;;;0.90;0.40;;;12.90;53.20;;;;;;5041369;28;20532;-73
2021/04/16 09:02:52;;;;;;;1.45;0.50;;;13.10;49.90;;;;;;5038370;28;20037;-73
2021/04/16 09:05:20;;;;;;;5.65;0.65;;;13.10;50.90;;;;;;5038478;28;20045;-73
2021/04/16 09:07:59;;;;;;;2.50;0.50;;;13.10;49.10;;;;;;5040268;28;20134;-73
2021/04/16 09:10:24;;;;;;;2.85;0.55;;;13.10;50.20;;;;;;5039893;28;20044;-73
2021/04/16 09:12:54;;;;;;;2.63;0.40;;;12.60;47.70;;;;;;5035362;28;20404;-73
2021/04/16 09:15:20;;;;;;;1.60;0.40;;;12.30;49.10;;;;;;5035482;28;20048;-73
2021/04/16 09:17:54;;;;;;;1.75;0.50;;;12.40;48.10;;;;;;5039480;28;20037;-73
2021/04/16 09:20:22;;;;;;;3.83;0.50;;;12.30;52.30;;;;;;5038766;28;20095;-73
2021/04/16 09:22:50;;;;;;;3.30;0.70;;;12.50;50.10;;;;;;5036011;28;20048;-73
2021/04/16 09:25:40;;;;;;;2.38;0.50;;;12.60;52.20;;;;;;5036989;28;20367;-73
2021/04/16 09:28:21;;;;;;;3.00;0.60;;;12.60;49.00;;;;;;5043641;28;20167;-73
2021/04/16 09:30:48;;;;;;;2.45;0.70;;;13.00;50.70;;;;;;5044082;28;20060;-73
2021/04/16 09:33:36;;;;;;;1.10;0.50;;;12.70;51.90;;;;;;5042281;28;20386;-73
2021/04/16 09:36:08;;;;;;;0.80;0.40;;;12.70;51.00;;;;;;5046534;28;20510;-73
2021/04/16 09:38:52;;;;;;;1.13;0.50;;;12.60;51.10;;;;;;5041324;28;20041;-73
2021/04/16 09:41:23;;;;;;;2.25;0.50;;;12.50;50.30;;;;;;5041589;28;20045;-72
2021/04/16 09:43:55;;;;;;;1.80;0.40;;;12.80;53.80;;;;;;5044767;28;20045;-72
2021/04/16 09:46:36;;;;;;;2.13;0.68;;;12.80;51.10;;;;;;5041775;28;20124;-72
2021/04/16 09:49:05;;;;;;;1.58;0.50;;;12.90;51.80;;;;;;5045313;28;20075;-72
2021/04/16 09:51:41;;;;;;;1.27;0.50;;;13.10;52.20;;;;;;5039410;28;20460;-73
2021/04/16 09:54:13;;;;;;;2.03;0.80;;;12.80;51.30;;;;;;5041275;28;20574;-73
2021/04/16 09:57:01;;;;;;;1.63;0.50;;;12.70;51.20;;;;;;5038754;28;20110;-72
2021/04/16 09:59:35;;;;;;;2.13;0.40;;;12.80;53.20;;;;;;5040644;28;20065;-72
2021/04/16 10:02:13;;;;;;;1.95;0.40;;;13.00;53.40;;;;;;5043317;28;20047;-72
2021/04/16 10:05:09;;;;;;;2.67;0.63;;;13.00;50.90;;;;;;5041434;28;20041;-72
2021/04/16 10:07:49;;;;;;;3.65;0.45;;;12.90;50.40;;;;;;5044662;28;20682;-72
2021/04/16 10:10:45;;;;;;;3.83;0.50;;;13.00;51.00;;;;;;5041557;28;20072;-72
2021/04/16 10:13:19;;;;;;;1.25;0.50;;;12.80;51.10;;;;;;5048950;28;20040;-72
2021/04/16 10:15:53;;;;;;;3.00;0.63;;;12.30;52.90;;;;;;5047241;28;20369;-72
2021/04/16 10:18:40;;;;;;;19.23;3.03;;;12.30;52.50;;;;;;5046054;28;20090;-72
2021/04/16 10:21:23;;;;;;;2.15;0.63;;;12.30;55.00;;;;;;5042207;28;20384;-72
2021/04/16 10:24:12;;;;;;;2.80;0.75;;;12.20;50.60;;;;;;5044356;28;20037;-72
2021/04/16 10:33:41;;;;;;;1.30;0.60;;;12.80;51.70;;;;;;5020566;28;20049;-72
2021/04/16 11:06:11;;;;;;;2.63;0.50;;;13.20;50.90;;;;;;5046433;28;20041;-72
2021/04/16 12:39:15;;;;;;;2.90;1.23;;;12.90;52.30;;;;;;5039781;28;20499;-73
2021/04/16 12:41:47;;;;;;;3.90;0.60;;;12.90;53.60;;;;;;5041381;28;20041;-73
2021/04/16 12:44:26;;;;;;;2.80;0.60;;;12.80;48.70;;;;;;5049249;28;20041;-74
2021/04/16 12:46:54;;;;;;;33.20;2.38;;;13.10;49.30;;;;;;5046572;28;20136;-71
2021/04/16 12:49:19;;;;;;;5.72;0.98;;;13.10;50.80;;;;;;5048360;28;20479;-74
2021/04/16 12:51:46;;;;;;;7.13;1.52;;;13.30;52.90;;;;;;5049075;28;20037;-76
2021/04/16 12:54:12;;;;;;;3.15;0.90;;;13.40;54.90;;;;;;5048162;28;20044;-70
2021/04/16 12:56:41;;;;;;;4.60;0.80;;;13.00;49.70;;;;;;5050439;28;20044;-74
2021/04/16 12:59:34;;;;;;;2.10;0.77;;;12.90;54.10;;;;;;5047960;28;20045;-74
2021/04/16 13:02:00;;;;;;;14.52;1.25;;;12.80;54.10;;;;;;5046409;28;20504;-74
2021/04/16 13:04:29;;;;;;;14.27;1.25;;;13.00;51.90;;;;;;5050805;28;20098;-72
2021/04/16 13:06:59;;;;;;;9.90;1.20;;;13.20;52.60;;;;;;5048521;28;20043;-72
2021/04/16 13:09:25;;;;;;;4.85;1.00;;;13.50;55.10;;;;;;5045591;28;20038;-71
2021/04/16 13:11:51;;;;;;;3.92;1.13;;;13.50;52.40;;;;;;5045151;28;20457;-70
2021/04/16 13:14:18;;;;;;;5.63;0.73;;;13.40;52.60;;;;;;5048707;28;20475;-68
2021/04/16 13:16:45;;;;;;;2.40;0.73;;;13.50;53.00;;;;;;5047463;28;20103;-69
2021/04/16 13:19:31;;;;;;;3.33;1.02;;;13.70;52.90;;;;;;5046736;28;20036;-72
2021/04/16 13:22:05;;;;;;;3.33;0.90;;;13.80;53.60;;;;;;5050344;28;20501;-72
2021/04/16 13:24:32;;;;;;;1.30;0.68;;;13.90;53.10;;;;;;5047184;28;20049;-78
2021/04/16 13:26:58;;;;;;;4.20;0.85;;;13.90;50.70;;;;;;5042691;28;20075;-67
2021/04/16 13:29:24;;;;;;;3.80;1.10;;;13.70;51.90;;;;;;5047136;28;20044;-79
2021/04/16 13:31:50;;;;;;;3.63;0.90;;;13.30;52.10;;;;;;5047064;28;20048;-72
2021/04/16 13:34:16;;;;;;;2.47;0.90;;;13.40;50.60;;;;;;5043168;28;20045;-71
2021/04/16 13:36:42;;;;;;;1.60;0.70;;;13.40;50.70;;;;;;5047405;28;20041;-71
2021/04/16 13:39:08;;;;;;;4.13;1.10;;;13.40;48.80;;;;;;5046066;28;20451;-71
2021/04/16 13:41:33;;;;;;;8.00;1.23;;;13.30;50.30;;;;;;5041807;28;20041;-71
2021/04/16 13:43:59;;;;;;;34.00;2.55;;;13.20;52.70;;;;;;5049465;28;20041;-72
2021/04/16 13:46:30;;;;;;;2.33;1.00;;;13.30;52.30;;;;;;5044902;28;23557;-72
2021/04/16 13:48:56;;;;;;;2.80;0.77;;;13.10;51.10;;;;;;5046635;28;20032;-72
2021/04/16 13:51:24;;;;;;;11.88;1.58;;;13.10;52.20;;;;;;5047859;28;20591;-71
2021/04/16 13:53:50;;;;;;;3.78;1.10;;;13.10;52.30;;;;;;5050086;28;20044;-71
2021/04/16 13:56:17;;;;;;;1.95;0.80;;;13.10;50.70;;;;;;5045495;28;20044;-71
2021/04/16 13:58:42;;;;;;;2.42;0.70;;;13.00;50.10;;;;;;5047997;28;20120;-72
2021/04/16 14:01:10;;;;;;;3.33;1.13;;;13.10;51.60;;;;;;5046990;28;20174;-71
2021/04/16 14:03:46;;;;;;;3.28;0.82;;;13.20;52.60;;;;;;5047404;28;20057;-71
2021/04/16 14:06:15;;;;;;;4.13;1.40;;;13.30;53.70;;;;;;5048381;28;20065;-71
2021/04/16 14:08:57;;;;;;;2.47;0.77;;;13.20;52.70;;;;;;5051903;28;20124;-71
2021/04/16 14:11:24;;;;;;;4.97;1.30;;;13.10;51.90;;;;;;5053587;28;20403;-71
2021/04/16 14:13:50;;;;;;;2.47;1.10;;;12.80;51.70;;;;;;5052540;28;20120;-71
2021/04/16 14:16:34;;;;;;;4.15;0.82;;;13.00;55.80;;;;;;5053354;28;20453;-71
2021/04/16 14:19:22;;;;;;;3.88;1.30;;;13.10;53.50;;;;;;5047949;28;20037;-72
2021/04/16 14:21:52;;;;;;;3.80;1.15;;;13.10;51.90;;;;;;5048145;28;20441;-71
2021/04/16 14:24:18;;;;;;;3.35;1.45;;;12.90;52.60;;;;;;5050615;28;20052;-72
2021/04/16 14:26:46;;;;;;;4.35;1.27;;;13.00;55.60;;;;;;5042892;28;20037;-71
2021/04/16 14:29:12;;;;;;;3.70;1.83;;;13.20;57.20;;;;;;5052961;28;20071;-71
2021/04/16 14:31:42;;;;;;;3.00;1.23;;;13.30;55.90;;;;;;5050983;28;20475;-71
2021/04/16 14:34:18;;;;;;;2.75;1.20;;;13.30;54.50;;;;;;5046950;28;20098;-71
2021/04/16 14:36:44;;;;;;;4.25;1.13;;;13.30;51.60;;;;;;5051055;28;20553;-71
2021/04/16 14:39:11;;;;;;;5.45;1.10;;;13.20;50.60;;;;;;5050200;28;20063;-71
2021/04/16 14:41:38;;;;;;;2.55;0.90;;;13.00;52.40;;;;;;5051247;28;20115;-71
2021/04/16 14:44:06;;;;;;;2.70;0.75;;;12.70;51.30;;;;;;5051206;28;20480;-71
2021/04/16 14:46:32;;;;;;;4.93;1.27;;;12.40;51.60;;;;;;5051190;28;20073;-71
2021/04/16 14:48:58;;;;;;;16.63;1.88;;;12.20;52.20;;;;;;5053270;28;20040;-71
2021/04/16 14:51:27;;;;;;;28.85;1.63;;;11.90;51.20;;;;;;5049231;28;20041;-71
2021/04/16 14:54:00;;;;;;;7.72;1.88;;;11.80;53.30;;;;;;5055644;28;20436;-71
2021/04/16 14:56:27;;;;;;;2.80;1.42;;;11.90;57.60;;;;;;5048813;28;20036;-70
2021/04/16 14:59:03;;;;;;;3.20;0.95;;;12.10;55.20;;;;;;5051767;28;20053;-71
2021/04/16 15:01:30;;;;;;;1.95;1.13;;;12.20;53.50;;;;;;5049293;28;20044;-71
2021/04/16 15:03:57;;;;;;;2.70;1.52;;;12.10;55.10;;;;;;5049158;28;20048;-71
2021/04/16 15:06:29;;;;;;;8.18;1.20;;;12.30;56.70;;;;;;5049982;28;20641;-71
2021/04/16 15:09:07;;;;;;;2.53;1.05;;;12.30;56.90;;;;;;5049935;28;20040;-72
2021/04/16 15:11:39;;;;;;;8.07;2.08;;;12.30;50.20;;;;;;5047853;28;20760;-71
2021/04/16 15:14:08;;;;;;;6.63;1.50;;;12.30;54.00;;;;;;5051452;28;20210;-72
2021/04/16 15:16:45;;;;;;;2.88;1.10;;;11.90;54.10;;;;;;5049004;28;20436;-71